Hanoverton, Ohio
Current Conditions -  °F | °C
As of 4:51 AM on Sunday 23 Nov 2014 (Local Time) from KCAK Reporting Station
Light Rain Light Rain  
Wind Chill: 41°   Ceiling: 5000
Heat Index: 45°   Visibility: 10mi
Dew Point: 35°   Wind: 7mph
Humidity: 68%   Direction: 200°SSW
Pressure: 30.05"   Gusts: NA
Location:  40.75°N, 80.94°W
Report Text: KCAK 230951Z 20006KT 10SM -RA SCT039 BKN050 OVC075 07/02 A3005 RMK AO2 SLP182 P0000 T00720017 $
Loading
Personal Weather Stations






























Interactive Weather Map New forecast layout! Learn more

10-Day Weather Forecast

Advertisements
Track Severe Weather on mobile